createdAt,value
2023-02-11T00:01:12.621Z,97886.16
2023-02-11T00:03:40.018Z,97892.31
2023-02-11T00:06:09.700Z,97892.34
2023-02-11T00:08:37.331Z,97901.00
2023-02-11T00:11:05.095Z,97888.97
2023-02-11T00:13:32.182Z,97889.00
2023-02-11T00:15:59.553Z,97883.00
2023-02-11T00:18:26.740Z,97890.78
2023-02-11T00:20:53.900Z,97890.03
2023-02-11T00:23:21.047Z,97890.09
2023-02-11T00:25:48.340Z,97891.00
2023-02-11T00:28:15.669Z,97884.81
2023-02-11T00:30:43.135Z,97887.31
2023-02-11T00:33:10.419Z,97888.13
2023-02-11T00:35:38.889Z,97882.00
2023-02-11T00:38:08.467Z,97881.09
2023-02-11T00:40:35.603Z,97874.19
2023-02-11T00:43:04.346Z,97882.75
2023-02-11T00:45:31.496Z,97879.38
2023-02-11T00:47:58.765Z,97877.56
2023-02-11T00:50:28.605Z,97867.16
2023-02-11T00:52:56.272Z,97868.91
2023-02-11T00:55:23.605Z,97868.88
2023-02-11T00:57:50.903Z,97867.13
2023-02-11T01:00:18.306Z,97868.00
2023-02-11T01:02:45.756Z,97870.63
2023-02-11T01:05:13.028Z,97867.25
2023-02-11T01:07:40.366Z,97859.47
2023-02-11T01:10:07.636Z,97858.66
2023-02-11T01:12:36.491Z,97862.13
2023-02-11T01:15:05.079Z,97858.69
2023-02-11T01:17:34.017Z,97857.91
2023-02-11T01:20:05.212Z,97860.50
2023-02-11T01:22:32.542Z,97854.50
2023-02-11T01:24:59.727Z,97860.63
2023-02-11T01:27:26.922Z,97860.69
2023-02-11T01:29:54.030Z,97863.28
2023-02-11T01:32:21.309Z,97858.16
2023-02-11T01:34:48.513Z,97865.94
2023-02-11T01:37:15.756Z,97859.03
2023-02-11T01:39:42.876Z,97871.94
2023-02-11T01:42:16.566Z,97876.31
2023-02-11T01:44:43.800Z,97872.00
2023-02-11T01:47:11.414Z,97863.41
2023-02-11T01:49:47.983Z,97857.34
2023-02-11T01:52:20.445Z,97859.94
2023-02-11T01:55:11.986Z,97854.78
2023-02-11T01:57:42.820Z,97862.63
2023-02-11T02:00:31.121Z,97853.16
2023-02-11T02:02:58.385Z,97861.81
2023-02-11T02:05:25.686Z,97861.91
2023-02-11T02:07:59.783Z,97854.06
2023-02-11T02:10:29.091Z,97848.84
2023-02-11T02:12:56.612Z,97851.47
2023-02-11T02:15:35.129Z,97846.28
2023-02-11T02:18:17.968Z,97844.50
2023-02-11T02:21:18.139Z,97831.44
2023-02-11T02:24:09.491Z,97830.50
2023-02-11T02:27:07.106Z,97821.00
2023-02-11T02:29:34.408Z,97813.16
2023-02-11T02:32:32.377Z,97817.50
2023-02-11T02:35:16.385Z,97800.16
2023-02-11T02:37:56.102Z,97802.63
2023-02-11T02:40:32.904Z,97801.75
2023-02-11T02:43:02.533Z,97803.50
2023-02-11T02:45:29.659Z,97794.09
2023-02-11T02:47:57.191Z,97798.56
2023-02-11T02:50:30.507Z,97777.91
2023-02-11T02:53:09.290Z,97776.25
2023-02-11T02:55:42.120Z,97776.34
2023-02-11T02:58:34.348Z,97778.09
2023-02-11T03:01:21.584Z,97780.63
2023-02-11T03:03:54.026Z,97766.06
2023-02-11T03:06:31.339Z,97754.84
2023-02-11T03:09:12.233Z,97760.06
2023-02-11T03:11:40.732Z,97756.59
2023-02-11T03:14:11.848Z,97758.25
2023-02-11T03:16:40.014Z,97750.50
2023-02-11T03:19:23.177Z,97754.81
2023-02-11T03:21:53.851Z,97754.78
2023-02-11T03:24:29.022Z,97763.25
2023-02-11T03:27:05.618Z,97764.00
2023-02-11T03:29:54.942Z,97769.09
2023-02-11T03:32:29.810Z,97758.69
2023-02-11T03:35:12.163Z,97752.66
2023-02-11T03:38:05.918Z,97756.84
2023-02-11T03:40:37.056Z,97755.16
2023-02-11T03:43:20.214Z,97758.53
2023-02-11T03:45:51.557Z,97762.00
2023-02-11T03:48:32.500Z,97761.13
2023-02-11T03:51:05.772Z,97755.91
2023-02-11T03:53:33.549Z,97756.78
2023-02-11T03:56:05.558Z,97768.03
2023-02-11T03:58:32.608Z,97772.31
2023-02-11T04:00:59.862Z,97770.63
2023-02-11T04:03:27.073Z,97768.06
2023-02-11T04:05:54.589Z,97776.72
2023-02-11T04:08:21.717Z,97776.72
2023-02-11T04:10:48.865Z,97784.50
2023-02-11T04:13:16.069Z,97799.25
2023-02-11T04:15:43.186Z,97789.69
2023-02-11T04:18:10.349Z,97785.31
2023-02-11T04:20:37.502Z,97780.13
2023-02-11T04:23:05.360Z,97780.09
2023-02-11T04:25:32.452Z,97780.84
2023-02-11T04:27:59.724Z,97781.59
2023-02-11T04:30:26.946Z,97791.91
2023-02-11T04:32:54.944Z,97798.72
2023-02-11T04:35:22.088Z,97813.34
2023-02-11T04:37:49.250Z,97814.09
2023-02-11T04:40:16.615Z,97817.41
2023-02-11T04:42:43.752Z,97820.78
2023-02-11T04:45:10.865Z,97828.53
2023-02-11T04:47:38.298Z,97829.41
2023-02-11T04:50:05.871Z,97827.59
2023-02-11T04:52:33.059Z,97824.97
2023-02-11T04:55:00.213Z,97818.88
2023-02-11T04:57:27.432Z,97811.09
2023-02-11T04:59:54.568Z,97819.72
2023-02-11T05:02:21.851Z,97821.38
2023-02-11T05:04:48.990Z,97817.00
2023-02-11T05:07:16.133Z,97808.31
2023-02-11T05:09:43.293Z,97805.78
2023-02-11T05:12:10.531Z,97802.53
2023-02-11T05:14:37.809Z,97800.59
2023-02-11T05:17:04.908Z,97796.03
2023-02-11T05:19:32.345Z,97794.16
2023-02-11T05:22:03.008Z,97792.31
2023-02-11T05:24:34.423Z,97794.03
2023-02-11T05:27:02.264Z,97787.09
2023-02-11T05:29:29.858Z,97786.19
2023-02-11T05:31:58.610Z,97773.28
2023-02-11T05:34:25.743Z,97768.09
2023-02-11T05:36:52.937Z,97767.28
2023-02-11T05:39:20.152Z,97766.31
2023-02-11T05:41:47.319Z,97758.34
2023-02-11T05:44:14.541Z,97756.50
2023-02-11T05:46:41.709Z,97767.47
2023-02-11T05:49:09.018Z,97769.84
2023-02-11T05:51:36.153Z,97764.44
2023-02-11T05:54:03.997Z,97765.06
2023-02-11T05:56:31.228Z,97769.16
2023-02-11T05:59:00.199Z,97748.31
2023-02-11T06:01:27.453Z,97761.13
2023-02-11T06:03:55.320Z,97756.53
2023-02-11T06:06:22.577Z,97769.34
2023-02-11T06:08:49.769Z,97766.44
2023-02-11T06:11:17.759Z,97771.44
2023-02-11T06:13:45.030Z,97766.88
2023-02-11T06:16:12.289Z,97774.38
2023-02-11T06:18:39.582Z,97780.06
2023-02-11T06:21:08.857Z,97784.00
2023-02-11T06:23:36.505Z,97790.56
2023-02-11T06:26:09.789Z,97787.59
2023-02-11T06:28:40.003Z,97778.75
2023-02-11T06:31:10.061Z,97768.41
2023-02-11T06:33:37.919Z,97765.16
2023-02-11T06:36:12.440Z,97757.47
2023-02-11T06:38:39.612Z,97752.34
2023-02-11T06:41:06.731Z,97746.44
2023-02-11T06:43:33.940Z,97755.84
2023-02-11T06:46:01.110Z,97767.78
2023-02-11T06:48:28.568Z,97769.25
2023-02-11T06:50:55.613Z,97775.09
2023-02-11T06:53:22.850Z,97776.91
2023-02-11T06:55:50.464Z,97778.63
2023-02-11T06:58:17.905Z,97787.19
2023-02-11T07:00:44.970Z,97782.75
2023-02-11T07:03:12.213Z,97781.81
2023-02-11T07:05:43.561Z,97770.63
2023-02-11T07:08:10.928Z,97777.53
2023-02-11T07:10:38.031Z,97781.81
2023-02-11T07:13:05.238Z,97771.19
2023-02-11T07:15:32.445Z,97757.28
2023-02-11T07:17:59.960Z,97755.50
2023-02-11T07:20:27.291Z,97759.59
2023-02-11T07:22:54.528Z,97754.28
2023-02-11T07:25:21.819Z,97758.28
2023-02-11T07:27:50.510Z,97771.88
2023-02-11T07:30:17.776Z,97782.47
2023-02-11T07:32:44.985Z,97788.81
2023-02-11T07:35:12.135Z,97767.81
2023-02-11T07:37:39.273Z,97756.94
2023-02-11T07:40:07.970Z,97735.34
2023-02-11T07:42:35.890Z,97731.09
2023-02-11T07:45:03.129Z,97748.06
2023-02-11T07:47:30.228Z,97751.81
2023-02-11T07:49:57.384Z,97750.16
2023-02-11T07:52:24.507Z,97741.97
2023-02-11T07:54:51.666Z,97739.78
2023-02-11T07:57:18.830Z,97750.25
2023-02-11T07:59:46.035Z,97750.16
2023-02-11T08:02:13.286Z,97747.44
2023-02-11T08:04:40.630Z,97757.63
2023-02-11T08:07:07.816Z,97749.97
2023-02-11T08:09:35.011Z,97752.09
2023-02-11T08:12:02.419Z,97734.84
2023-02-11T08:14:29.704Z,97738.38
2023-02-11T08:16:56.883Z,97726.97
2023-02-11T08:19:24.172Z,97723.56
2023-02-11T08:21:51.478Z,97740.00
2023-02-11T08:24:18.695Z,97740.78
2023-02-11T08:26:46.039Z,97748.78
2023-02-11T08:29:15.397Z,97743.91
2023-02-11T08:31:45.285Z,97751.38
2023-02-11T08:34:19.351Z,97752.84
2023-02-11T08:36:48.362Z,97751.94
2023-02-11T08:39:21.724Z,97749.66
2023-02-11T08:41:52.014Z,97753.56
2023-02-11T08:44:21.168Z,97756.28
2023-02-11T08:46:49.772Z,97763.59
2023-02-11T08:49:17.103Z,97758.03
2023-02-11T08:51:45.687Z,97749.00
2023-02-11T08:54:13.495Z,97739.72
2023-02-11T08:56:40.753Z,97736.56
2023-02-11T08:59:09.715Z,97718.28
2023-02-11T09:01:37.117Z,97728.22
2023-02-11T09:04:04.972Z,97723.97
2023-02-11T09:06:32.413Z,97730.94
2023-02-11T09:08:59.888Z,97728.53
2023-02-11T09:11:35.921Z,97719.03
2023-02-11T09:14:04.510Z,97713.00
2023-02-11T09:16:34.580Z,97716.72
2023-02-11T09:19:05.018Z,97716.50
2023-02-11T09:21:32.355Z,97718.66
2023-02-11T09:23:59.578Z,97717.41
2023-02-11T09:26:30.044Z,97724.44
2023-02-11T09:28:57.510Z,97716.75
2023-02-11T09:31:27.143Z,97729.16
2023-02-11T09:33:57.479Z,97728.25
2023-02-11T09:36:27.269Z,97719.78
2023-02-11T09:38:55.480Z,97737.19
2023-02-11T09:41:44.224Z,97729.69
2023-02-11T09:44:23.656Z,97717.47
2023-02-11T09:46:57.467Z,97721.06
2023-02-11T09:49:44.754Z,97714.53
2023-02-11T09:53:05.284Z,97724.28
2023-02-11T09:55:36.941Z,97708.00
2023-02-11T09:58:12.039Z,97696.03
2023-02-11T10:00:52.069Z,97703.31
2023-02-11T10:03:48.591Z,97710.09
2023-02-11T10:06:49.551Z,97709.84
2023-02-11T10:09:25.689Z,97698.34
2023-02-11T10:12:17.504Z,97697.19
2023-02-11T10:15:23.092Z,97702.06
2023-02-11T10:18:02.432Z,97707.50
2023-02-11T10:20:35.458Z,97701.38
2023-02-11T10:23:13.409Z,97708.97
2023-02-11T10:25:45.557Z,97705.94
2023-02-11T10:28:22.486Z,97713.41
2023-02-11T10:31:00.554Z,97712.34
2023-02-11T10:33:27.762Z,97715.81
2023-02-11T10:35:54.979Z,97706.22
2023-02-11T10:38:22.171Z,97701.78
2023-02-11T10:40:49.788Z,97698.75
2023-02-11T10:43:20.861Z,97700.13
2023-02-11T10:45:51.232Z,97690.09
2023-02-11T10:48:40.142Z,97677.09
2023-02-11T10:51:29.753Z,97672.94
2023-02-11T10:54:08.398Z,97667.63
2023-02-11T10:56:38.350Z,97665.50
2023-02-11T10:59:15.938Z,97675.72
2023-02-11T11:01:51.279Z,97670.22
2023-02-11T11:04:30.752Z,97676.94
2023-02-11T11:07:28.720Z,97666.06
2023-02-11T11:10:00.701Z,97656.66
2023-02-11T11:12:48.150Z,97655.94
2023-02-11T11:15:25.990Z,97659.16
2023-02-11T11:18:23.487Z,97661.72
2023-02-11T11:21:01.276Z,97657.53
2023-02-11T11:23:30.855Z,97655.84
2023-02-11T11:26:18.037Z,97649.78
2023-02-11T11:29:08.822Z,97646.41
2023-02-11T11:31:46.483Z,97648.63
2023-02-11T11:34:27.904Z,97651.94
2023-02-11T11:36:56.710Z,97649.34
2023-02-11T11:39:34.475Z,97644.84
2023-02-11T11:42:23.576Z,97646.16
2023-02-11T11:45:01.248Z,97644.25
2023-02-11T11:47:45.459Z,97662.59
2023-02-11T11:50:40.289Z,97665.72
2023-02-11T11:53:23.444Z,97655.75
2023-02-11T11:56:01.103Z,97657.84
2023-02-11T11:58:30.364Z,97646.78
2023-02-11T12:01:18.804Z,97647.25
2023-02-11T12:04:26.166Z,97646.72
2023-02-11T12:07:03.856Z,97649.00
2023-02-11T12:09:53.026Z,97650.31
2023-02-11T12:12:34.685Z,97653.16
2023-02-11T12:15:16.835Z,97640.13
2023-02-11T12:17:54.993Z,97644.47
2023-02-11T12:20:24.805Z,97633.59
2023-02-11T12:23:19.945Z,97638.59
2023-02-11T12:26:01.947Z,97630.06
2023-02-11T12:28:41.877Z,97629.75
2023-02-11T12:31:17.063Z,97614.19
2023-02-11T12:34:12.185Z,97611.22
2023-02-11T12:36:54.975Z,97610.88
2023-02-11T12:39:28.102Z,97619.94
2023-02-11T12:42:21.097Z,97609.19
2023-02-11T12:45:06.511Z,97609.34
2023-02-11T12:47:51.897Z,97612.00
2023-02-11T12:50:40.608Z,97606.63
2023-02-11T12:53:21.206Z,97599.78
2023-02-11T12:55:52.878Z,97606.16
2023-02-11T12:58:35.590Z,97599.22
2023-02-11T13:01:20.558Z,97603.69
2023-02-11T13:04:01.085Z,97593.56
2023-02-11T13:06:45.338Z,97601.22
2023-02-11T13:09:21.262Z,97599.00
2023-02-11T13:11:56.289Z,97592.34
2023-02-11T13:14:30.816Z,97577.59
2023-02-11T13:16:58.853Z,97565.72
2023-02-11T13:19:49.486Z,97567.44
2023-02-11T13:22:35.143Z,97565.16
2023-02-11T13:25:08.417Z,97568.22
2023-02-11T13:27:59.099Z,97566.44
2023-02-11T13:30:34.000Z,97565.16
2023-02-11T13:33:01.231Z,97564.56
2023-02-11T13:35:30.059Z,97564.31
2023-02-11T13:38:17.899Z,97562.53
2023-02-11T13:40:46.057Z,97566.78
2023-02-11T13:43:25.782Z,97557.97
2023-02-11T13:46:02.560Z,97564.13
2023-02-11T13:48:31.389Z,97582.59
2023-02-11T13:51:05.501Z,97571.28
2023-02-11T13:53:47.310Z,97573.16
2023-02-11T13:56:28.707Z,97569.75
2023-02-11T13:58:55.910Z,97578.50
2023-02-11T14:02:12.308Z,97569.78
2023-02-11T14:05:22.759Z,97561.28
2023-02-11T14:08:30.284Z,97557.25
2023-02-11T14:11:08.795Z,97570.66
2023-02-11T14:13:37.646Z,97561.41
2023-02-11T14:16:36.465Z,97558.88
2023-02-11T14:19:06.734Z,97559.03
2023-02-11T14:21:42.034Z,97558.91
2023-02-11T14:24:13.452Z,97563.25
2023-02-11T14:27:02.329Z,97571.06
2023-02-11T14:30:06.740Z,97570.13
2023-02-11T14:32:49.832Z,97569.06
2023-02-11T14:35:27.910Z,97575.41
2023-02-11T14:38:02.790Z,97571.31
2023-02-11T14:40:35.076Z,97576.63
2023-02-11T14:43:15.696Z,97573.88
2023-02-11T14:45:48.667Z,97575.41
2023-02-11T14:48:18.510Z,97580.00
2023-02-11T14:50:51.091Z,97583.50
2023-02-11T14:53:25.935Z,97577.22
2023-02-11T14:55:55.886Z,97577.34
2023-02-11T14:58:28.526Z,97580.13
2023-02-11T15:00:55.560Z,97575.25
2023-02-11T15:03:28.273Z,97574.66
2023-02-11T15:06:08.729Z,97568.22
2023-02-11T15:08:38.628Z,97577.56
2023-02-11T15:11:12.708Z,97572.84
2023-02-11T15:13:44.771Z,97577.19
2023-02-11T15:16:15.804Z,97578.34
2023-02-11T15:18:45.682Z,97576.91
2023-02-11T15:21:13.229Z,97588.00
2023-02-11T15:23:42.245Z,97596.94
2023-02-11T15:26:21.929Z,97585.56
2023-02-11T15:28:52.274Z,97591.50
2023-02-11T15:31:23.681Z,97582.84
2023-02-11T15:33:51.724Z,97591.19
2023-02-11T15:36:22.099Z,97593.00
2023-02-11T15:39:20.223Z,97596.47
2023-02-11T15:41:47.348Z,97602.72
2023-02-11T15:44:33.198Z,97598.47
2023-02-11T15:47:00.627Z,97597.72
2023-02-11T15:49:27.767Z,97606.00
2023-02-11T15:51:57.534Z,97601.22
2023-02-11T15:54:28.001Z,97611.38
2023-02-11T15:57:02.276Z,97604.81
2023-02-11T15:59:38.340Z,97600.03
2023-02-11T16:02:17.138Z,97604.00
2023-02-11T16:04:53.287Z,97611.59
2023-02-11T16:07:40.893Z,97610.72
2023-02-11T16:10:25.454Z,97611.63
2023-02-11T16:13:08.751Z,97609.03
2023-02-11T16:15:39.918Z,97615.84
2023-02-11T16:18:38.440Z,97623.72
2023-02-11T16:21:15.568Z,97629.50
2023-02-11T16:23:44.088Z,97642.31
2023-02-11T16:26:22.405Z,97632.25
2023-02-11T16:28:50.446Z,97644.00
2023-02-11T16:31:17.941Z,97639.97
2023-02-11T16:33:45.392Z,97648.19
2023-02-11T16:36:14.728Z,97643.28
2023-02-11T16:38:41.900Z,97645.53
2023-02-11T16:41:12.974Z,97649.50
2023-02-11T16:43:40.693Z,97651.84
2023-02-11T16:46:09.628Z,97662.84
2023-02-11T16:48:38.422Z,97670.34
2023-02-11T16:51:08.551Z,97665.63
2023-02-11T16:53:35.728Z,97661.59
2023-02-11T16:56:02.853Z,97664.59
2023-02-11T16:58:30.209Z,97663.44
2023-02-11T17:00:57.852Z,97671.09
2023-02-11T17:03:29.943Z,97677.94
2023-02-11T17:05:57.501Z,97682.03
2023-02-11T17:08:24.809Z,97690.59
2023-02-11T17:10:52.188Z,97696.28
2023-02-11T17:13:19.635Z,97702.88
2023-02-11T17:15:46.726Z,97697.78
2023-02-11T17:18:14.792Z,97706.53
2023-02-11T17:20:42.140Z,97704.94
2023-02-11T17:23:09.798Z,97708.41
2023-02-11T17:25:37.633Z,97715.47
2023-02-11T17:28:09.554Z,97714.59
2023-02-11T17:30:36.693Z,97718.16
2023-02-11T17:33:03.912Z,97724.50
2023-02-11T17:35:30.964Z,97719.19
2023-02-11T17:37:59.284Z,97720.09
2023-02-11T17:40:26.843Z,97711.78
2023-02-11T17:42:53.953Z,97724.34
2023-02-11T17:45:22.366Z,97724.69
2023-02-11T17:47:50.007Z,97721.44
2023-02-11T17:50:17.436Z,97730.50
2023-02-11T17:52:44.827Z,97729.94
2023-02-11T17:55:12.044Z,97743.28
2023-02-11T17:57:39.335Z,97741.84
2023-02-11T18:00:08.069Z,97742.06
2023-02-11T18:02:40.036Z,97739.78
2023-02-11T18:05:07.444Z,97743.59
2023-02-11T18:07:34.709Z,97744.06
2023-02-11T18:10:02.030Z,97742.44
2023-02-11T18:12:29.595Z,97744.28
2023-02-11T18:14:58.161Z,97743.28
2023-02-11T18:17:26.329Z,97734.47
2023-02-11T18:19:57.583Z,97736.41
2023-02-11T18:22:25.086Z,97727.59
2023-02-11T18:24:54.680Z,97739.88
2023-02-11T18:27:23.165Z,97724.19
2023-02-11T18:29:50.466Z,97733.94
2023-02-11T18:32:17.668Z,97727.59
2023-02-11T18:34:44.774Z,97736.25
2023-02-11T18:37:13.673Z,97738.81
2023-02-11T18:39:41.180Z,97754.72
2023-02-11T18:42:08.721Z,97748.06
2023-02-11T18:44:36.631Z,97735.78
2023-02-11T18:47:04.815Z,97733.72
2023-02-11T18:49:33.235Z,97736.25
2023-02-11T18:52:00.392Z,97735.25
2023-02-11T18:54:27.581Z,97740.91
2023-02-11T18:56:54.692Z,97744.38
2023-02-11T18:59:21.761Z,97751.03
2023-02-11T19:01:49.024Z,97745.91
2023-02-11T19:04:20.244Z,97744.06
2023-02-11T19:06:49.785Z,97737.81
2023-02-11T19:09:19.976Z,97738.50
2023-02-11T19:11:47.554Z,97740.06
2023-02-11T19:14:17.859Z,97731.53
2023-02-11T19:16:50.781Z,97738.56
2023-02-11T19:19:19.407Z,97743.38
2023-02-11T19:21:47.836Z,97743.81
2023-02-11T19:24:16.520Z,97746.63
2023-02-11T19:26:43.680Z,97752.72
2023-02-11T19:29:11.133Z,97749.69
2023-02-11T19:31:39.229Z,97753.94
2023-02-11T19:34:07.836Z,97754.31
2023-02-11T19:36:35.279Z,97751.09
2023-02-11T19:39:04.791Z,97746.53
2023-02-11T19:41:33.880Z,97744.84
2023-02-11T19:44:02.982Z,97741.38
2023-02-11T19:46:33.878Z,97742.13
2023-02-11T19:49:02.072Z,97740.22
2023-02-11T19:51:30.439Z,97739.34
2023-02-11T19:53:58.990Z,97741.84
2023-02-11T19:56:28.871Z,97739.13
2023-02-11T19:58:56.280Z,97737.03
2023-02-11T20:01:25.058Z,97738.88
2023-02-11T20:03:54.476Z,97739.81
2023-02-11T20:06:28.333Z,97746.53
2023-02-11T20:08:58.782Z,97745.53
2023-02-11T20:11:28.368Z,97747.09
2023-02-11T20:13:56.072Z,97739.59
2023-02-11T20:16:36.834Z,97747.31
2023-02-11T20:19:18.521Z,97753.00
2023-02-11T20:21:47.857Z,97755.63
2023-02-11T20:24:16.756Z,97760.03
2023-02-11T20:26:45.658Z,97770.34
2023-02-11T20:29:12.884Z,97770.88
2023-02-11T20:31:40.144Z,97776.56
2023-02-11T20:34:07.536Z,97780.19
2023-02-11T20:36:37.798Z,97778.44
2023-02-11T20:39:06.697Z,97780.28
2023-02-11T20:41:36.735Z,97775.88
2023-02-11T20:44:07.528Z,97781.59
2023-02-11T20:46:38.556Z,97782.44
2023-02-11T20:49:06.336Z,97776.44
2023-02-11T20:51:35.316Z,97782.69
2023-02-11T20:54:02.551Z,97786.19
2023-02-11T20:56:32.677Z,97785.84
2023-02-11T20:59:01.507Z,97774.56
2023-02-11T21:01:49.950Z,97781.53
2023-02-11T21:04:21.083Z,97775.59
2023-02-11T21:06:52.533Z,97786.84
2023-02-11T21:09:23.958Z,97792.03
2023-02-11T21:11:52.884Z,97793.22
2023-02-11T21:14:22.565Z,97800.16
2023-02-11T21:16:50.650Z,97786.78
2023-02-11T21:19:18.592Z,97789.19
2023-02-11T21:21:45.885Z,97786.63
2023-02-11T21:24:13.386Z,97786.78
2023-02-11T21:26:40.525Z,97792.28
2023-02-11T21:29:08.668Z,97787.03
2023-02-11T21:31:37.131Z,97788.81
2023-02-11T21:34:05.083Z,97778.97
2023-02-11T21:36:32.290Z,97773.88
2023-02-11T21:39:00.475Z,97779.28
2023-02-11T21:41:27.982Z,97778.16
2023-02-11T21:43:55.216Z,97782.38
2023-02-11T21:46:23.103Z,97775.13
2023-02-11T21:48:50.462Z,97776.66
2023-02-11T21:51:23.724Z,97775.66
2023-02-11T21:54:01.885Z,97778.13
2023-02-11T21:56:31.206Z,97785.06
2023-02-11T21:59:00.471Z,97780.75
2023-02-11T22:01:35.612Z,97773.41
2023-02-11T22:04:03.403Z,97772.38
2023-02-11T22:06:33.532Z,97768.75
2023-02-11T22:09:07.061Z,97765.19
2023-02-11T22:11:34.265Z,97774.00
2023-02-11T22:14:01.931Z,97769.38
2023-02-11T22:16:30.383Z,97767.41
2023-02-11T22:19:02.724Z,97776.84
2023-02-11T22:21:30.301Z,97779.38
2023-02-11T22:23:57.726Z,97778.53
2023-02-11T22:26:26.622Z,97779.38
2023-02-11T22:28:55.173Z,97787.88
2023-02-11T22:31:28.292Z,97798.00
2023-02-11T22:33:56.248Z,97792.59
2023-02-11T22:36:38.583Z,97794.09
2023-02-11T22:39:17.769Z,97795.66
2023-02-11T22:41:46.508Z,97788.50
2023-02-11T22:44:14.527Z,97792.00
2023-02-11T22:46:41.710Z,97792.84
2023-02-11T22:49:10.582Z,97797.25
2023-02-11T22:51:39.194Z,97800.59
2023-02-11T22:54:08.524Z,97805.84
2023-02-11T22:56:35.959Z,97807.63
2023-02-11T22:59:12.053Z,97807.56
2023-02-11T23:01:39.586Z,97817.28
2023-02-11T23:04:09.217Z,97823.50
2023-02-11T23:06:36.468Z,97828.75
2023-02-11T23:09:05.450Z,97821.00
2023-02-11T23:11:33.066Z,97821.13
2023-02-11T23:14:01.445Z,97825.53
2023-02-11T23:16:34.297Z,97822.13
2023-02-11T23:19:05.439Z,97819.50
2023-02-11T23:21:34.755Z,97822.13
2023-02-11T23:24:08.379Z,97815.16
2023-02-11T23:26:41.488Z,97822.19
2023-02-11T23:29:09.714Z,97825.69
2023-02-11T23:31:40.629Z,97831.88
2023-02-11T23:34:08.901Z,97833.56
2023-02-11T23:36:36.233Z,97825.69
2023-02-11T23:39:04.132Z,97834.41
2023-02-11T23:41:31.279Z,97831.72
2023-02-11T23:43:59.632Z,97836.91
2023-02-11T23:46:27.856Z,97832.56
2023-02-11T23:48:55.420Z,97841.31
2023-02-11T23:51:23.959Z,97851.91
2023-02-11T23:53:51.685Z,97848.50
2023-02-11T23:56:21.770Z,97834.41
2023-02-11T23:58:50.488Z,97830.00
